sensor_id;sensor_type;location;lat;lon;timestamp;P1;durP1;ratioP1;P2;durP2;ratioP2
56075;SDS011;41951;49.022;12.066;2022-12-13T00:01:09;25.80;;;12.98;;
56075;SDS011;41951;49.022;12.066;2022-12-13T00:03:41;30.67;;;14.75;;
56075;SDS011;41951;49.022;12.066;2022-12-13T00:06:09;30.80;;;14.43;;
56075;SDS011;41951;49.022;12.066;2022-12-13T00:08:35;31.30;;;13.48;;
56075;SDS011;41951;49.022;12.066;2022-12-13T00:11:01;27.52;;;13.80;;
56075;SDS011;41951;49.022;12.066;2022-12-13T00:13:30;28.92;;;14.25;;
56075;SDS011;41951;49.022;12.066;2022-12-13T00:16:00;28.38;;;12.73;;
56075;SDS011;41951;49.022;12.066;2022-12-13T00:18:28;27.70;;;13.13;;
56075;SDS011;41951;49.022;12.066;2022-12-13T00:20:54;26.85;;;13.38;;
56075;SDS011;41951;49.022;12.066;2022-12-13T00:23:20;28.27;;;12.48;;
56075;SDS011;41951;49.022;12.066;2022-12-13T00:25:46;26.75;;;13.60;;
56075;SDS011;41951;49.022;12.066;2022-12-13T00:28:12;29.50;;;13.00;;
56075;SDS011;41951;49.022;12.066;2022-12-13T00:30:38;30.05;;;15.10;;
56075;SDS011;41951;49.022;12.066;2022-12-13T00:33:04;27.63;;;13.00;;
56075;SDS011;41951;49.022;12.066;2022-12-13T00:35:30;25.95;;;12.93;;
56075;SDS011;41951;49.022;12.066;2022-12-13T00:37:57;32.53;;;13.02;;
56075;SDS011;41951;49.022;12.066;2022-12-13T00:40:22;25.30;;;13.18;;
56075;SDS011;41951;49.022;12.066;2022-12-13T00:42:48;28.60;;;12.82;;
56075;SDS011;41951;49.022;12.066;2022-12-13T00:45:14;29.77;;;13.27;;
56075;SDS011;41951;49.022;12.066;2022-12-13T00:47:40;30.42;;;13.60;;
56075;SDS011;41951;49.022;12.066;2022-12-13T00:50:05;26.40;;;13.60;;
56075;SDS011;41951;49.022;12.066;2022-12-13T00:52:34;27.55;;;13.40;;
56075;SDS011;41951;49.022;12.066;2022-12-13T00:55:00;28.50;;;12.43;;
56075;SDS011;41951;49.022;12.066;2022-12-13T00:57:26;25.95;;;11.90;;
56075;SDS011;41951;49.022;12.066;2022-12-13T00:59:51;25.60;;;12.07;;
56075;SDS011;41951;49.022;12.066;2022-12-13T01:02:17;27.63;;;12.88;;
56075;SDS011;41951;49.022;12.066;2022-12-13T01:04:43;30.95;;;13.77;;
56075;SDS011;41951;49.022;12.066;2022-12-13T01:07:09;28.63;;;13.32;;
56075;SDS011;41951;49.022;12.066;2022-12-13T01:09:34;28.20;;;13.55;;
56075;SDS011;41951;49.022;12.066;2022-12-13T01:12:02;29.45;;;13.38;;
56075;SDS011;41951;49.022;12.066;2022-12-13T01:14:29;27.08;;;12.50;;
56075;SDS011;41951;49.022;12.066;2022-12-13T01:16:55;29.50;;;13.85;;
56075;SDS011;41951;49.022;12.066;2022-12-13T01:19:22;29.90;;;14.75;;
56075;SDS011;41951;49.022;12.066;2022-12-13T01:21:52;25.83;;;12.57;;
56075;SDS011;41951;49.022;12.066;2022-12-13T01:24:18;26.45;;;13.13;;
56075;SDS011;41951;49.022;12.066;2022-12-13T01:26:45;31.00;;;12.07;;
56075;SDS011;41951;49.022;12.066;2022-12-13T01:29:11;29.58;;;13.30;;
56075;SDS011;41951;49.022;12.066;2022-12-13T01:31:37;28.25;;;13.40;;
56075;SDS011;41951;49.022;12.066;2022-12-13T01:34:05;27.60;;;12.38;;
56075;SDS011;41951;49.022;12.066;2022-12-13T01:36:34;28.08;;;12.40;;
56075;SDS011;41951;49.022;12.066;2022-12-13T01:39:00;23.33;;;12.13;;
56075;SDS011;41951;49.022;12.066;2022-12-13T01:41:27;24.92;;;12.90;;
56075;SDS011;41951;49.022;12.066;2022-12-13T01:43:55;26.85;;;11.90;;
56075;SDS011;41951;49.022;12.066;2022-12-13T01:46:25;33.78;;;13.00;;
56075;SDS011;41951;49.022;12.066;2022-12-13T01:51:45;26.02;;;12.23;;
56075;SDS011;41951;49.022;12.066;2022-12-13T01:54:11;29.00;;;11.77;;
56075;SDS011;41951;49.022;12.066;2022-12-13T01:56:46;26.45;;;11.93;;
56075;SDS011;41951;49.022;12.066;2022-12-13T01:59:15;23.13;;;11.45;;
56075;SDS011;41951;49.022;12.066;2022-12-13T02:01:43;26.95;;;12.45;;
56075;SDS011;41951;49.022;12.066;2022-12-13T02:04:10;25.25;;;12.15;;
56075;SDS011;41951;49.022;12.066;2022-12-13T02:06:37;28.48;;;11.63;;
56075;SDS011;41951;49.022;12.066;2022-12-13T02:09:06;23.88;;;11.63;;
56075;SDS011;41951;49.022;12.066;2022-12-13T02:11:33;26.60;;;11.20;;
56075;SDS011;41951;49.022;12.066;2022-12-13T02:14:00;24.10;;;12.45;;
56075;SDS011;41951;49.022;12.066;2022-12-13T02:27:39;28.38;;;11.88;;
56075;SDS011;41951;49.022;12.066;2022-12-13T02:30:20;28.63;;;12.30;;
56075;SDS011;41951;49.022;12.066;2022-12-13T02:35:38;28.15;;;12.32;;
56075;SDS011;41951;49.022;12.066;2022-12-13T02:38:30;27.35;;;11.80;;
56075;SDS011;41951;49.022;12.066;2022-12-13T02:41:11;23.55;;;11.10;;
56075;SDS011;41951;49.022;12.066;2022-12-13T02:47:04;26.50;;;11.50;;
56075;SDS011;41951;49.022;12.066;2022-12-13T02:49:34;24.98;;;10.88;;
56075;SDS011;41951;49.022;12.066;2022-12-13T02:52:03;24.45;;;11.40;;
56075;SDS011;41951;49.022;12.066;2022-12-13T02:54:33;25.92;;;11.75;;
56075;SDS011;41951;49.022;12.066;2022-12-13T02:57:00;27.40;;;12.68;;
56075;SDS011;41951;49.022;12.066;2022-12-13T02:59:27;28.02;;;11.13;;
56075;SDS011;41951;49.022;12.066;2022-12-13T03:04:44;28.83;;;11.95;;
56075;SDS011;41951;49.022;12.066;2022-12-13T03:07:54;22.48;;;11.02;;
56075;SDS011;41951;49.022;12.066;2022-12-13T03:10:31;29.38;;;12.63;;
56075;SDS011;41951;49.022;12.066;2022-12-13T03:13:04;22.83;;;10.40;;
56075;SDS011;41951;49.022;12.066;2022-12-13T03:15:57;24.85;;;11.20;;
56075;SDS011;41951;49.022;12.066;2022-12-13T03:18:27;24.00;;;11.80;;
56075;SDS011;41951;49.022;12.066;2022-12-13T03:20:58;23.95;;;10.98;;
56075;SDS011;41951;49.022;12.066;2022-12-13T03:23:26;22.00;;;11.73;;
56075;SDS011;41951;49.022;12.066;2022-12-13T03:25:53;29.80;;;12.20;;
56075;SDS011;41951;49.022;12.066;2022-12-13T03:28:20;23.65;;;10.77;;
56075;SDS011;41951;49.022;12.066;2022-12-13T03:30:47;26.25;;;11.15;;
56075;SDS011;41951;49.022;12.066;2022-12-13T03:33:13;24.13;;;10.80;;
56075;SDS011;41951;49.022;12.066;2022-12-13T03:35:39;23.45;;;11.10;;
56075;SDS011;41951;49.022;12.066;2022-12-13T03:38:06;24.65;;;12.05;;
56075;SDS011;41951;49.022;12.066;2022-12-13T03:40:32;24.42;;;11.57;;
56075;SDS011;41951;49.022;12.066;2022-12-13T03:42:58;29.63;;;12.75;;
56075;SDS011;41951;49.022;12.066;2022-12-13T03:45:25;26.02;;;11.07;;
56075;SDS011;41951;49.022;12.066;2022-12-13T03:47:50;26.15;;;11.95;;
56075;SDS011;41951;49.022;12.066;2022-12-13T03:50:16;40.03;;;13.23;;
56075;SDS011;41951;49.022;12.066;2022-12-13T03:52:41;28.00;;;13.10;;
56075;SDS011;41951;49.022;12.066;2022-12-13T03:55:08;27.60;;;12.10;;
56075;SDS011;41951;49.022;12.066;2022-12-13T03:57:34;27.30;;;13.55;;
56075;SDS011;41951;49.022;12.066;2022-12-13T04:00:00;29.73;;;13.45;;
56075;SDS011;41951;49.022;12.066;2022-12-13T04:02:25;28.10;;;12.85;;
56075;SDS011;41951;49.022;12.066;2022-12-13T04:04:51;30.52;;;15.35;;
56075;SDS011;41951;49.022;12.066;2022-12-13T04:07:16;30.88;;;13.63;;
56075;SDS011;41951;49.022;12.066;2022-12-13T04:09:42;35.15;;;14.38;;
56075;SDS011;41951;49.022;12.066;2022-12-13T04:12:08;30.77;;;13.20;;
56075;SDS011;41951;49.022;12.066;2022-12-13T04:14:52;29.88;;;12.88;;
56075;SDS011;41951;49.022;12.066;2022-12-13T04:17:17;29.52;;;13.38;;
56075;SDS011;41951;49.022;12.066;2022-12-13T04:19:43;27.58;;;12.68;;
56075;SDS011;41951;49.022;12.066;2022-12-13T04:22:09;29.65;;;12.63;;
56075;SDS011;41951;49.022;12.066;2022-12-13T04:24:34;25.48;;;12.07;;
56075;SDS011;41951;49.022;12.066;2022-12-13T04:27:01;31.35;;;12.55;;
56075;SDS011;41951;49.022;12.066;2022-12-13T04:29:27;26.48;;;12.27;;
56075;SDS011;41951;49.022;12.066;2022-12-13T04:31:53;26.38;;;12.20;;
56075;SDS011;41951;49.022;12.066;2022-12-13T04:34:19;27.77;;;12.13;;
56075;SDS011;41951;49.022;12.066;2022-12-13T04:36:44;28.02;;;11.18;;
56075;SDS011;41951;49.022;12.066;2022-12-13T04:39:10;29.08;;;12.73;;
56075;SDS011;41951;49.022;12.066;2022-12-13T04:41:36;30.58;;;12.15;;
56075;SDS011;41951;49.022;12.066;2022-12-13T04:44:04;27.25;;;12.50;;
56075;SDS011;41951;49.022;12.066;2022-12-13T04:46:30;27.15;;;12.25;;
56075;SDS011;41951;49.022;12.066;2022-12-13T04:48:56;36.67;;;13.00;;
56075;SDS011;41951;49.022;12.066;2022-12-13T04:51:23;34.05;;;12.10;;
56075;SDS011;41951;49.022;12.066;2022-12-13T04:53:49;31.70;;;13.05;;
56075;SDS011;41951;49.022;12.066;2022-12-13T04:56:14;25.25;;;11.02;;
56075;SDS011;41951;49.022;12.066;2022-12-13T04:58:40;32.10;;;13.25;;
56075;SDS011;41951;49.022;12.066;2022-12-13T05:01:06;29.42;;;12.35;;
56075;SDS011;41951;49.022;12.066;2022-12-13T05:03:33;30.08;;;12.98;;
56075;SDS011;41951;49.022;12.066;2022-12-13T05:06:02;28.17;;;11.63;;
56075;SDS011;41951;49.022;12.066;2022-12-13T05:08:32;29.58;;;12.32;;
56075;SDS011;41951;49.022;12.066;2022-12-13T05:10:58;29.55;;;12.20;;
56075;SDS011;41951;49.022;12.066;2022-12-13T05:13:24;35.65;;;12.98;;
56075;SDS011;41951;49.022;12.066;2022-12-13T05:15:59;30.92;;;12.65;;
56075;SDS011;41951;49.022;12.066;2022-12-13T05:18:26;30.85;;;12.73;;
56075;SDS011;41951;49.022;12.066;2022-12-13T05:20:52;26.58;;;12.35;;
56075;SDS011;41951;49.022;12.066;2022-12-13T05:23:19;30.20;;;13.13;;
56075;SDS011;41951;49.022;12.066;2022-12-13T05:25:46;32.80;;;12.63;;
56075;SDS011;41951;49.022;12.066;2022-12-13T05:28:12;25.60;;;10.88;;
56075;SDS011;41951;49.022;12.066;2022-12-13T05:30:38;31.15;;;13.27;;
56075;SDS011;41951;49.022;12.066;2022-12-13T05:33:04;29.55;;;12.68;;
56075;SDS011;41951;49.022;12.066;2022-12-13T05:35:30;27.25;;;11.73;;
56075;SDS011;41951;49.022;12.066;2022-12-13T05:37:56;26.20;;;11.95;;
56075;SDS011;41951;49.022;12.066;2022-12-13T05:40:22;29.42;;;12.90;;
56075;SDS011;41951;49.022;12.066;2022-12-13T05:42:48;23.98;;;11.93;;
56075;SDS011;41951;49.022;12.066;2022-12-13T05:45:14;28.00;;;12.05;;
56075;SDS011;41951;49.022;12.066;2022-12-13T05:47:42;28.77;;;12.43;;
56075;SDS011;41951;49.022;12.066;2022-12-13T05:50:08;30.98;;;13.27;;
56075;SDS011;41951;49.022;12.066;2022-12-13T05:52:34;30.35;;;11.82;;
56075;SDS011;41951;49.022;12.066;2022-12-13T05:55:00;25.90;;;11.70;;
56075;SDS011;41951;49.022;12.066;2022-12-13T05:57:26;23.73;;;11.00;;
56075;SDS011;41951;49.022;12.066;2022-12-13T05:59:52;23.83;;;11.55;;
56075;SDS011;41951;49.022;12.066;2022-12-13T06:02:17;24.25;;;11.68;;
56075;SDS011;41951;49.022;12.066;2022-12-13T06:04:43;23.38;;;10.80;;
56075;SDS011;41951;49.022;12.066;2022-12-13T06:07:09;28.40;;;11.52;;
56075;SDS011;41951;49.022;12.066;2022-12-13T06:09:35;25.30;;;12.15;;
56075;SDS011;41951;49.022;12.066;2022-12-13T06:12:01;29.02;;;12.35;;
56075;SDS011;41951;49.022;12.066;2022-12-13T06:14:27;26.48;;;11.23;;
56075;SDS011;41951;49.022;12.066;2022-12-13T06:16:53;27.40;;;12.57;;
56075;SDS011;41951;49.022;12.066;2022-12-13T06:19:19;30.80;;;13.05;;
56075;SDS011;41951;49.022;12.066;2022-12-13T06:21:48;29.83;;;12.88;;
56075;SDS011;41951;49.022;12.066;2022-12-13T06:24:15;29.77;;;12.63;;
56075;SDS011;41951;49.022;12.066;2022-12-13T06:26:42;28.75;;;13.35;;
56075;SDS011;41951;49.022;12.066;2022-12-13T06:29:08;30.08;;;12.95;;
56075;SDS011;41951;49.022;12.066;2022-12-13T06:31:34;32.88;;;14.30;;
56075;SDS011;41951;49.022;12.066;2022-12-13T06:34:01;35.17;;;14.38;;
56075;SDS011;41951;49.022;12.066;2022-12-13T06:36:30;29.88;;;12.68;;
56075;SDS011;41951;49.022;12.066;2022-12-13T06:38:55;30.58;;;12.98;;
56075;SDS011;41951;49.022;12.066;2022-12-13T06:41:25;30.75;;;14.00;;
56075;SDS011;41951;49.022;12.066;2022-12-13T06:43:51;32.30;;;13.20;;
56075;SDS011;41951;49.022;12.066;2022-12-13T06:46:16;28.10;;;12.65;;
56075;SDS011;41951;49.022;12.066;2022-12-13T06:48:42;24.10;;;12.05;;
56075;SDS011;41951;49.022;12.066;2022-12-13T06:51:08;28.40;;;13.00;;
56075;SDS011;41951;49.022;12.066;2022-12-13T06:53:35;29.42;;;11.95;;
56075;SDS011;41951;49.022;12.066;2022-12-13T06:56:02;27.90;;;11.70;;
56075;SDS011;41951;49.022;12.066;2022-12-13T06:58:29;27.65;;;11.93;;
56075;SDS011;41951;49.022;12.066;2022-12-13T07:01:05;30.65;;;13.15;;
56075;SDS011;41951;49.022;12.066;2022-12-13T07:03:32;30.70;;;13.43;;
56075;SDS011;41951;49.022;12.066;2022-12-13T07:05:59;32.97;;;15.18;;
56075;SDS011;41951;49.022;12.066;2022-12-13T07:08:29;27.25;;;12.80;;
56075;SDS011;41951;49.022;12.066;2022-12-13T07:10:55;26.80;;;13.43;;
56075;SDS011;41951;49.022;12.066;2022-12-13T07:13:22;29.55;;;13.85;;
56075;SDS011;41951;49.022;12.066;2022-12-13T07:15:48;29.02;;;12.43;;
56075;SDS011;41951;49.022;12.066;2022-12-13T07:18:14;31.25;;;12.43;;
56075;SDS011;41951;49.022;12.066;2022-12-13T07:20:40;31.67;;;12.45;;
56075;SDS011;41951;49.022;12.066;2022-12-13T07:23:06;28.45;;;12.35;;
56075;SDS011;41951;49.022;12.066;2022-12-13T07:25:32;27.50;;;11.75;;
56075;SDS011;41951;49.022;12.066;2022-12-13T07:27:58;26.13;;;11.52;;
56075;SDS011;41951;49.022;12.066;2022-12-13T07:30:25;25.98;;;11.05;;
56075;SDS011;41951;49.022;12.066;2022-12-13T07:32:51;28.30;;;12.75;;
56075;SDS011;41951;49.022;12.066;2022-12-13T07:35:16;29.08;;;12.82;;
56075;SDS011;41951;49.022;12.066;2022-12-13T07:37:42;31.42;;;11.98;;
56075;SDS011;41951;49.022;12.066;2022-12-13T07:40:08;24.40;;;11.63;;
56075;SDS011;41951;49.022;12.066;2022-12-13T07:42:34;24.85;;;10.98;;
56075;SDS011;41951;49.022;12.066;2022-12-13T07:45:00;28.55;;;12.68;;
56075;SDS011;41951;49.022;12.066;2022-12-13T07:47:29;22.50;;;11.00;;
56075;SDS011;41951;49.022;12.066;2022-12-13T07:49:56;25.70;;;11.17;;
56075;SDS011;41951;49.022;12.066;2022-12-13T07:52:22;23.45;;;10.40;;
56075;SDS011;41951;49.022;12.066;2022-12-13T07:54:47;20.23;;;9.77;;
56075;SDS011;41951;49.022;12.066;2022-12-13T07:57:13;25.83;;;11.57;;
56075;SDS011;41951;49.022;12.066;2022-12-13T07:59:38;23.55;;;11.38;;
56075;SDS011;41951;49.022;12.066;2022-12-13T08:02:05;24.73;;;10.52;;
56075;SDS011;41951;49.022;12.066;2022-12-13T08:04:32;21.88;;;10.95;;
56075;SDS011;41951;49.022;12.066;2022-12-13T08:06:58;23.77;;;11.50;;
56075;SDS011;41951;49.022;12.066;2022-12-13T08:09:23;21.02;;;10.57;;
56075;SDS011;41951;49.022;12.066;2022-12-13T08:11:49;23.02;;;10.18;;
56075;SDS011;41951;49.022;12.066;2022-12-13T08:14:14;20.50;;;10.00;;
56075;SDS011;41951;49.022;12.066;2022-12-13T08:16:40;24.17;;;10.05;;
56075;SDS011;41951;49.022;12.066;2022-12-13T08:19:07;21.50;;;8.75;;
56075;SDS011;41951;49.022;12.066;2022-12-13T08:21:35;22.30;;;9.98;;
56075;SDS011;41951;49.022;12.066;2022-12-13T08:24:03;26.98;;;8.93;;
56075;SDS011;41951;49.022;12.066;2022-12-13T08:26:29;19.38;;;8.70;;
56075;SDS011;41951;49.022;12.066;2022-12-13T08:28:55;17.63;;;9.10;;
56075;SDS011;41951;49.022;12.066;2022-12-13T08:31:20;18.15;;;8.65;;
56075;SDS011;41951;49.022;12.066;2022-12-13T08:33:46;21.70;;;10.18;;
56075;SDS011;41951;49.022;12.066;2022-12-13T08:36:13;22.13;;;9.82;;
56075;SDS011;41951;49.022;12.066;2022-12-13T08:38:40;18.50;;;8.52;;
56075;SDS011;41951;49.022;12.066;2022-12-13T08:41:06;20.40;;;9.40;;
56075;SDS011;41951;49.022;12.066;2022-12-13T08:43:33;21.08;;;9.18;;
56075;SDS011;41951;49.022;12.066;2022-12-13T08:45:59;21.70;;;10.27;;
56075;SDS011;41951;49.022;12.066;2022-12-13T08:48:25;22.05;;;10.23;;
56075;SDS011;41951;49.022;12.066;2022-12-13T08:50:51;18.92;;;8.88;;
56075;SDS011;41951;49.022;12.066;2022-12-13T08:53:17;24.50;;;10.30;;
56075;SDS011;41951;49.022;12.066;2022-12-13T08:55:43;19.50;;;9.80;;
56075;SDS011;41951;49.022;12.066;2022-12-13T08:58:08;19.60;;;9.25;;
56075;SDS011;41951;49.022;12.066;2022-12-13T09:00:34;19.77;;;10.10;;
56075;SDS011;41951;49.022;12.066;2022-12-13T09:03:01;19.38;;;9.68;;
56075;SDS011;41951;49.022;12.066;2022-12-13T09:05:28;18.60;;;9.27;;
56075;SDS011;41951;49.022;12.066;2022-12-13T09:07:54;24.50;;;10.13;;
56075;SDS011;41951;49.022;12.066;2022-12-13T09:10:21;19.52;;;9.13;;
56075;SDS011;41951;49.022;12.066;2022-12-13T09:12:47;17.73;;;9.23;;
56075;SDS011;41951;49.022;12.066;2022-12-13T09:15:12;20.48;;;10.18;;
56075;SDS011;41951;49.022;12.066;2022-12-13T09:17:38;19.70;;;8.70;;
56075;SDS011;41951;49.022;12.066;2022-12-13T09:20:05;18.85;;;9.05;;
56075;SDS011;41951;49.022;12.066;2022-12-13T09:22:33;19.90;;;9.07;;
56075;SDS011;41951;49.022;12.066;2022-12-13T09:25:03;21.25;;;10.05;;
56075;SDS011;41951;49.022;12.066;2022-12-13T09:27:29;21.20;;;9.82;;
56075;SDS011;41951;49.022;12.066;2022-12-13T09:29:56;18.05;;;9.80;;
56075;SDS011;41951;49.022;12.066;2022-12-13T09:32:22;19.35;;;10.02;;
56075;SDS011;41951;49.022;12.066;2022-12-13T09:34:48;19.67;;;9.55;;
56075;SDS011;41951;49.022;12.066;2022-12-13T09:37:14;22.00;;;10.48;;
56075;SDS011;41951;49.022;12.066;2022-12-13T09:39:40;19.55;;;9.95;;
56075;SDS011;41951;49.022;12.066;2022-12-13T09:42:09;18.58;;;10.32;;
56075;SDS011;41951;49.022;12.066;2022-12-13T09:47:33;17.83;;;8.52;;
56075;SDS011;41951;49.022;12.066;2022-12-13T09:50:13;17.63;;;8.27;;
56075;SDS011;41951;49.022;12.066;2022-12-13T09:52:43;19.42;;;9.60;;
56075;SDS011;41951;49.022;12.066;2022-12-13T09:55:16;20.38;;;9.38;;
56075;SDS011;41951;49.022;12.066;2022-12-13T09:57:53;18.58;;;8.77;;
56075;SDS011;41951;49.022;12.066;2022-12-13T10:00:24;19.30;;;9.40;;
56075;SDS011;41951;49.022;12.066;2022-12-13T10:02:57;19.98;;;9.43;;
56075;SDS011;41951;49.022;12.066;2022-12-13T10:05:28;16.25;;;9.20;;
56075;SDS011;41951;49.022;12.066;2022-12-13T10:07:58;21.38;;;9.43;;
56075;SDS011;41951;49.022;12.066;2022-12-13T10:12:58;18.20;;;8.25;;
56075;SDS011;41951;49.022;12.066;2022-12-13T10:15:33;19.73;;;9.60;;
56075;SDS011;41951;49.022;12.066;2022-12-13T10:18:03;21.42;;;10.02;;
56075;SDS011;41951;49.022;12.066;2022-12-13T10:20:30;17.40;;;9.50;;
56075;SDS011;41951;49.022;12.066;2022-12-13T10:22:58;18.83;;;9.50;;
56075;SDS011;41951;49.022;12.066;2022-12-13T10:25:43;20.08;;;9.95;;
56075;SDS011;41951;49.022;12.066;2022-12-13T10:28:12;18.50;;;9.38;;
56075;SDS011;41951;49.022;12.066;2022-12-13T10:30:41;19.17;;;9.00;;
56075;SDS011;41951;49.022;12.066;2022-12-13T10:33:17;19.27;;;9.20;;
56075;SDS011;41951;49.022;12.066;2022-12-13T10:36:00;20.77;;;8.70;;
56075;SDS011;41951;49.022;12.066;2022-12-13T10:38:33;17.92;;;9.02;;
56075;SDS011;41951;49.022;12.066;2022-12-13T10:41:00;16.73;;;8.32;;
56075;SDS011;41951;49.022;12.066;2022-12-13T10:43:27;18.13;;;8.82;;
56075;SDS011;41951;49.022;12.066;2022-12-13T10:48:20;18.83;;;7.63;;
56075;SDS011;41951;49.022;12.066;2022-12-13T10:53:38;14.60;;;6.82;;
56075;SDS011;41951;49.022;12.066;2022-12-13T10:56:12;17.85;;;7.05;;
56075;SDS011;41951;49.022;12.066;2022-12-13T10:58:39;14.38;;;7.03;;
56075;SDS011;41951;49.022;12.066;2022-12-13T11:01:27;15.85;;;8.00;;
56075;SDS011;41951;49.022;12.066;2022-12-13T11:03:59;12.45;;;6.50;;
56075;SDS011;41951;49.022;12.066;2022-12-13T11:06:41;15.82;;;7.60;;
56075;SDS011;41951;49.022;12.066;2022-12-13T11:11:41;11.60;;;5.57;;
56075;SDS011;41951;49.022;12.066;2022-12-13T11:14:14;14.98;;;7.05;;
56075;SDS011;41951;49.022;12.066;2022-12-13T11:16:43;13.88;;;6.63;;
56075;SDS011;41951;49.022;12.066;2022-12-13T11:20:06;16.95;;;6.72;;
56075;SDS011;41951;49.022;12.066;2022-12-13T11:22:22;14.17;;;6.10;;
56075;SDS011;41951;49.022;12.066;2022-12-13T11:24:50;15.55;;;6.28;;
56075;SDS011;41951;49.022;12.066;2022-12-13T11:29:54;16.48;;;6.93;;
56075;SDS011;41951;49.022;12.066;2022-12-13T11:35:29;17.40;;;7.78;;
56075;SDS011;41951;49.022;12.066;2022-12-13T11:41:07;17.13;;;7.00;;
56075;SDS011;41951;49.022;12.066;2022-12-13T11:43:51;16.33;;;6.50;;
56075;SDS011;41951;49.022;12.066;2022-12-13T11:46:19;16.00;;;7.13;;
56075;SDS011;41951;49.022;12.066;2022-12-13T11:48:55;15.27;;;6.18;;
56075;SDS011;41951;49.022;12.066;2022-12-13T11:51:30;13.98;;;6.07;;
56075;SDS011;41951;49.022;12.066;2022-12-13T11:54:08;15.48;;;6.55;;
56075;SDS011;41951;49.022;12.066;2022-12-13T11:56:41;13.75;;;5.03;;
56075;SDS011;41951;49.022;12.066;2022-12-13T12:01:50;11.13;;;5.25;;
56075;SDS011;41951;49.022;12.066;2022-12-13T12:04:47;20.10;;;8.02;;
56075;SDS011;41951;49.022;12.066;2022-12-13T12:07:16;15.18;;;6.40;;
56075;SDS011;41951;49.022;12.066;2022-12-13T12:09:50;12.65;;;5.97;;
56075;SDS011;41951;49.022;12.066;2022-12-13T12:12:43;11.30;;;5.55;;
56075;SDS011;41951;49.022;12.066;2022-12-13T12:15:28;16.13;;;6.50;;
56075;SDS011;41951;49.022;12.066;2022-12-13T12:17:59;16.08;;;6.28;;
56075;SDS011;41951;49.022;12.066;2022-12-13T12:20:59;15.20;;;6.15;;
56075;SDS011;41951;49.022;12.066;2022-12-13T12:26:11;12.55;;;5.95;;
56075;SDS011;41951;49.022;12.066;2022-12-13T12:31:19;14.15;;;6.40;;
56075;SDS011;41951;49.022;12.066;2022-12-13T12:36:36;14.43;;;7.05;;
56075;SDS011;41951;49.022;12.066;2022-12-13T12:58:01;11.30;;;5.63;;
56075;SDS011;41951;49.022;12.066;2022-12-13T13:00:46;14.88;;;6.35;;
56075;SDS011;41951;49.022;12.066;2022-12-13T13:03:39;13.95;;;6.07;;
56075;SDS011;41951;49.022;12.066;2022-12-13T13:08:53;15.43;;;6.88;;
56075;SDS011;41951;49.022;12.066;2022-12-13T13:11:34;15.40;;;6.78;;
56075;SDS011;41951;49.022;12.066;2022-12-13T13:16:50;14.45;;;7.07;;
56075;SDS011;41951;49.022;12.066;2022-12-13T13:21:45;14.43;;;6.50;;
56075;SDS011;41951;49.022;12.066;2022-12-13T13:26:43;14.40;;;6.15;;
56075;SDS011;41951;49.022;12.066;2022-12-13T13:31:56;15.40;;;7.18;;
56075;SDS011;41951;49.022;12.066;2022-12-13T13:34:25;10.70;;;5.65;;
56075;SDS011;41951;49.022;12.066;2022-12-13T13:36:53;12.63;;;6.78;;
56075;SDS011;41951;49.022;12.066;2022-12-13T13:50:01;11.80;;;6.15;;
56075;SDS011;41951;49.022;12.066;2022-12-13T13:58:39;10.82;;;5.50;;
56075;SDS011;41951;49.022;12.066;2022-12-13T14:09:57;19.23;;;8.27;;
56075;SDS011;41951;49.022;12.066;2022-12-13T14:17:39;15.90;;;5.95;;
56075;SDS011;41951;49.022;12.066;2022-12-13T14:23:24;15.40;;;6.63;;
56075;SDS011;41951;49.022;12.066;2022-12-13T14:26:01;12.25;;;5.90;;
56075;SDS011;41951;49.022;12.066;2022-12-13T14:28:54;15.15;;;8.27;;
56075;SDS011;41951;49.022;12.066;2022-12-13T14:31:23;13.32;;;7.45;;
56075;SDS011;41951;49.022;12.066;2022-12-13T14:33:52;17.20;;;7.82;;
56075;SDS011;41951;49.022;12.066;2022-12-13T14:36:28;13.48;;;6.95;;
56075;SDS011;41951;49.022;12.066;2022-12-13T14:41:30;12.82;;;6.13;;
56075;SDS011;41951;49.022;12.066;2022-12-13T14:47:05;13.68;;;6.57;;
56075;SDS011;41951;49.022;12.066;2022-12-13T14:49:35;15.27;;;6.60;;
56075;SDS011;41951;49.022;12.066;2022-12-13T14:52:05;19.23;;;7.70;;
56075;SDS011;41951;49.022;12.066;2022-12-13T14:54:46;13.13;;;7.10;;
56075;SDS011;41951;49.022;12.066;2022-12-13T14:57:16;17.15;;;6.32;;
56075;SDS011;41951;49.022;12.066;2022-12-13T14:59:44;18.40;;;6.72;;
56075;SDS011;41951;49.022;12.066;2022-12-13T15:02:16;12.80;;;5.70;;
56075;SDS011;41951;49.022;12.066;2022-12-13T15:04:56;16.52;;;5.88;;
56075;SDS011;41951;49.022;12.066;2022-12-13T15:09:59;20.92;;;6.47;;
56075;SDS011;41951;49.022;12.066;2022-12-13T15:12:27;16.60;;;6.30;;
56075;SDS011;41951;49.022;12.066;2022-12-13T15:15:04;14.60;;;6.03;;
56075;SDS011;41951;49.022;12.066;2022-12-13T15:17:38;11.60;;;5.78;;
56075;SDS011;41951;49.022;12.066;2022-12-13T15:22:56;12.20;;;6.22;;
56075;SDS011;41951;49.022;12.066;2022-12-13T15:25:35;11.18;;;6.05;;
56075;SDS011;41951;49.022;12.066;2022-12-13T15:28:02;13.13;;;6.38;;
56075;SDS011;41951;49.022;12.066;2022-12-13T15:30:30;11.90;;;5.95;;
56075;SDS011;41951;49.022;12.066;2022-12-13T15:33:03;20.73;;;6.55;;
56075;SDS011;41951;49.022;12.066;2022-12-13T15:35:30;12.63;;;6.15;;
56075;SDS011;41951;49.022;12.066;2022-12-13T15:37:57;20.08;;;6.78;;
56075;SDS011;41951;49.022;12.066;2022-12-13T15:40:22;13.93;;;6.15;;
56075;SDS011;41951;49.022;12.066;2022-12-13T15:42:48;12.88;;;6.35;;
56075;SDS011;41951;49.022;12.066;2022-12-13T15:45:19;13.48;;;6.38;;
56075;SDS011;41951;49.022;12.066;2022-12-13T15:47:50;13.40;;;6.57;;
56075;SDS011;41951;49.022;12.066;2022-12-13T15:50:36;19.17;;;6.97;;
56075;SDS011;41951;49.022;12.066;2022-12-13T15:53:05;20.35;;;10.02;;
56075;SDS011;41951;49.022;12.066;2022-12-13T15:55:43;17.77;;;10.07;;
56075;SDS011;41951;49.022;12.066;2022-12-13T16:00:49;30.23;;;12.60;;
56075;SDS011;41951;49.022;12.066;2022-12-13T16:03:16;26.17;;;11.23;;
56075;SDS011;41951;49.022;12.066;2022-12-13T16:05:49;26.13;;;13.65;;
56075;SDS011;41951;49.022;12.066;2022-12-13T16:10:54;20.42;;;9.18;;
56075;SDS011;41951;49.022;12.066;2022-12-13T16:13:30;18.88;;;9.18;;
56075;SDS011;41951;49.022;12.066;2022-12-13T16:15:58;15.90;;;7.63;;
56075;SDS011;41951;49.022;12.066;2022-12-13T16:18:32;19.42;;;8.43;;
56075;SDS011;41951;49.022;12.066;2022-12-13T16:21:07;15.27;;;6.80;;
56075;SDS011;41951;49.022;12.066;2022-12-13T16:23:34;16.40;;;8.10;;
56075;SDS011;41951;49.022;12.066;2022-12-13T16:26:00;19.92;;;7.68;;
56075;SDS011;41951;49.022;12.066;2022-12-13T16:28:25;15.32;;;7.45;;
56075;SDS011;41951;49.022;12.066;2022-12-13T16:33:20;25.50;;;13.15;;
56075;SDS011;41951;49.022;12.066;2022-12-13T16:35:49;48.88;;;22.77;;
56075;SDS011;41951;49.022;12.066;2022-12-13T16:38:15;21.58;;;11.20;;
56075;SDS011;41951;49.022;12.066;2022-12-13T16:40:45;25.73;;;10.77;;
56075;SDS011;41951;49.022;12.066;2022-12-13T16:43:17;20.05;;;8.60;;
56075;SDS011;41951;49.022;12.066;2022-12-13T16:45:46;22.40;;;9.63;;